createdAt,value
2018-08-09T00:01:07.156Z,5.43
2018-08-09T00:03:39.163Z,6.27
2018-08-09T00:06:11.188Z,5.30
2018-08-09T00:08:43.196Z,6.20
2018-08-09T00:11:15.201Z,5.90
2018-08-09T00:16:38.295Z,5.50
2018-08-09T00:19:10.344Z,6.13
2018-08-09T00:21:42.378Z,6.73
2018-08-09T00:24:14.479Z,5.93
2018-08-09T00:26:46.508Z,6.57
2018-08-09T00:29:18.510Z,5.63
2018-08-09T00:31:50.522Z,5.90
2018-08-09T00:34:22.557Z,6.77
2018-08-09T00:36:54.591Z,6.90
2018-08-09T00:39:26.597Z,6.30
2018-08-09T00:41:58.622Z,6.53
2018-08-09T00:44:30.655Z,6.60
2018-08-09T00:47:02.715Z,6.03
2018-08-09T00:49:34.773Z,6.57
2018-08-09T00:52:06.780Z,6.60
2018-08-09T00:54:38.787Z,6.73
2018-08-09T00:57:10.810Z,6.77
2018-08-09T00:59:42.793Z,6.00
2018-08-09T01:02:14.796Z,6.53
2018-08-09T01:04:46.824Z,7.13
2018-08-09T01:07:18.845Z,7.27
2018-08-09T01:10:54.146Z,6.93
2018-08-09T01:13:26.144Z,6.97
2018-08-09T01:15:58.122Z,6.63
2018-08-09T01:18:30.102Z,6.60
2018-08-09T01:21:02.104Z,6.50
2018-08-09T01:23:34.078Z,7.50
2018-08-09T01:26:06.111Z,6.43
2018-08-09T01:28:38.167Z,6.40
2018-08-09T01:31:10.214Z,7.20
2018-08-09T01:33:42.174Z,8.00
2018-08-09T01:36:14.155Z,7.50
2018-08-09T01:38:46.196Z,7.83
2018-08-09T01:41:18.187Z,7.00
2018-08-09T01:44:00.099Z,7.73
2018-08-09T01:46:32.259Z,6.60
2018-08-09T01:49:04.286Z,7.73
2018-08-09T01:51:36.263Z,7.80
2018-08-09T01:54:08.253Z,7.07
2018-08-09T01:56:40.262Z,7.37
2018-08-09T01:59:12.263Z,7.67
2018-08-09T02:01:44.258Z,7.30
2018-08-09T02:04:16.238Z,7.00
2018-08-09T02:06:48.245Z,6.93
2018-08-09T02:09:25.890Z,7.33
2018-08-09T02:11:57.907Z,7.83
2018-08-09T02:14:29.947Z,7.53
2018-08-09T02:17:01.933Z,7.70
2018-08-09T02:19:33.974Z,6.77
2018-08-09T02:22:05.998Z,7.40
2018-08-09T02:24:38.007Z,7.40
2018-08-09T02:27:10.011Z,8.07
2018-08-09T02:29:42.096Z,7.10
2018-08-09T02:32:14.140Z,7.80
2018-08-09T02:34:46.147Z,8.10
2018-08-09T02:37:18.151Z,7.90
2018-08-09T02:39:50.144Z,8.00
2018-08-09T02:42:28.773Z,8.00
2018-08-09T02:45:00.783Z,7.53
2018-08-09T02:47:32.802Z,7.33
2018-08-09T02:50:04.858Z,8.10
2018-08-09T02:52:36.880Z,7.13
2018-08-09T02:55:08.910Z,6.60
2018-08-09T02:57:41.001Z,6.93
2018-08-09T03:00:13.056Z,7.30
2018-08-09T03:02:45.060Z,7.30
2018-08-09T03:05:17.088Z,6.60
2018-08-09T03:07:49.303Z,6.83
2018-08-09T03:10:21.392Z,7.57
2018-08-09T03:12:53.433Z,8.13
2018-08-09T03:15:25.470Z,9.23
2018-08-09T03:17:57.591Z,8.00
2018-08-09T03:20:29.610Z,7.80
2018-08-09T03:23:01.598Z,7.67
2018-08-09T03:25:33.609Z,7.70
2018-08-09T03:28:05.606Z,7.93
2018-08-09T03:30:37.623Z,8.47
2018-08-09T03:33:09.578Z,8.03
2018-08-09T03:35:41.560Z,8.90
2018-08-09T03:38:13.552Z,7.90
2018-08-09T03:40:45.563Z,7.40
2018-08-09T03:43:17.555Z,8.00
2018-08-09T03:45:49.559Z,8.43
2018-08-09T03:48:21.538Z,8.40
2018-08-09T03:50:53.578Z,7.67
2018-08-09T03:53:25.572Z,7.37
2018-08-09T03:55:57.562Z,9.00
2018-08-09T03:58:29.576Z,8.37
2018-08-09T04:01:01.594Z,8.07
2018-08-09T04:03:33.562Z,8.43
2018-08-09T04:06:05.580Z,6.93
2018-08-09T04:08:37.754Z,8.77
2018-08-09T04:11:09.727Z,8.20
2018-08-09T04:13:41.702Z,8.47
2018-08-09T04:16:13.767Z,9.33
2018-08-09T04:18:46.117Z,9.37
2018-08-09T04:21:18.134Z,8.20
2018-08-09T04:23:50.130Z,8.90
2018-08-09T04:26:22.171Z,8.50
2018-08-09T04:28:54.114Z,8.57
2018-08-09T04:31:26.110Z,8.60
2018-08-09T04:33:58.087Z,9.10
2018-08-09T04:36:30.055Z,9.07
2018-08-09T04:39:02.204Z,8.73
2018-08-09T04:41:34.236Z,9.47
2018-08-09T04:44:06.318Z,8.50
2018-08-09T04:46:38.310Z,9.00
2018-08-09T04:49:10.284Z,8.60
2018-08-09T04:51:42.328Z,8.80
2018-08-09T04:54:14.311Z,10.10
2018-08-09T04:56:46.298Z,9.50
2018-08-09T04:59:18.287Z,9.63
2018-08-09T05:01:50.325Z,9.90
2018-08-09T05:04:22.503Z,9.83
2018-08-09T05:06:54.654Z,9.10
2018-08-09T05:09:26.661Z,10.83
2018-08-09T05:11:58.711Z,9.07
2018-08-09T05:14:30.699Z,9.27
2018-08-09T05:18:27.278Z,8.63
2018-08-09T05:20:59.313Z,8.53
2018-08-09T05:23:31.319Z,9.00
2018-08-09T05:26:03.314Z,9.07
2018-08-09T05:28:35.322Z,9.53
2018-08-09T05:31:07.351Z,8.10
2018-08-09T05:33:39.649Z,7.73
2018-08-09T05:36:11.784Z,7.90
2018-08-09T05:38:43.791Z,8.57
2018-08-09T05:41:15.790Z,8.23
2018-08-09T05:43:47.770Z,7.73
2018-08-09T05:46:19.774Z,7.70
2018-08-09T05:48:51.790Z,7.60
2018-08-09T05:51:23.863Z,6.80
2018-08-09T05:53:55.863Z,7.20
2018-08-09T05:56:27.868Z,7.00
2018-08-09T05:58:59.860Z,7.90
2018-08-09T06:01:31.900Z,7.33
2018-08-09T06:04:03.890Z,8.30
2018-08-09T06:06:35.942Z,7.03
2018-08-09T06:09:09.275Z,6.73
2018-08-09T06:11:42.032Z,7.13
2018-08-09T06:14:14.286Z,6.40
2018-08-09T06:16:46.291Z,6.07
2018-08-09T06:19:18.325Z,6.27
2018-08-09T06:21:50.336Z,6.03
2018-08-09T06:24:22.347Z,5.83
2018-08-09T06:26:54.359Z,5.70
2018-08-09T06:29:26.386Z,5.60
2018-08-09T06:31:58.445Z,5.40
2018-08-09T06:34:30.477Z,6.10
2018-08-09T06:37:02.516Z,5.50
2018-08-09T06:39:34.509Z,5.27
2018-08-09T06:42:06.537Z,5.20
2018-08-09T06:44:38.516Z,5.50
2018-08-09T06:47:17.193Z,5.10
2018-08-09T06:49:49.198Z,5.20
2018-08-09T06:52:21.223Z,5.17
2018-08-09T06:54:53.268Z,5.40
2018-08-09T06:57:25.331Z,5.23
2018-08-09T06:59:57.355Z,5.40
2018-08-09T07:02:29.383Z,4.97
2018-08-09T07:05:01.727Z,4.83
2018-08-09T07:07:33.811Z,4.77
2018-08-09T07:10:06.403Z,5.13
2018-08-09T07:12:38.520Z,4.63
2018-08-09T07:15:12.063Z,4.97
2018-08-09T07:17:44.039Z,4.50
2018-08-09T07:20:16.153Z,4.67
2018-08-09T07:22:48.166Z,4.93
2018-08-09T07:25:20.143Z,4.57
2018-08-09T07:27:52.158Z,5.17
2018-08-09T07:30:24.177Z,4.70
2018-08-09T07:32:56.187Z,4.80
2018-08-09T07:35:28.261Z,4.70
2018-08-09T07:38:00.351Z,4.37
2018-08-09T07:40:32.355Z,4.30
2018-08-09T07:43:04.476Z,4.00
2018-08-09T07:45:36.495Z,3.40
2018-08-09T07:48:08.556Z,3.97
2018-08-09T07:50:40.684Z,3.60
2018-08-09T07:53:12.780Z,3.40
2018-08-09T07:55:44.798Z,3.33
2018-08-09T07:58:16.805Z,3.60
2018-08-09T08:00:48.849Z,3.80
2018-08-09T08:03:20.930Z,3.67
2018-08-09T08:05:53.093Z,3.90
2018-08-09T08:08:25.016Z,3.53
2018-08-09T08:10:57.095Z,3.70
2018-08-09T08:13:29.148Z,3.67
2018-08-09T08:16:01.263Z,3.60
2018-08-09T08:18:33.411Z,3.70
2018-08-09T08:21:05.515Z,4.30
2018-08-09T08:23:37.537Z,3.93
2018-08-09T08:26:09.565Z,3.73
2018-08-09T08:28:41.654Z,4.07
2018-08-09T08:31:13.742Z,3.93
2018-08-09T08:33:45.787Z,3.90
2018-08-09T08:36:17.801Z,3.60
2018-08-09T08:38:49.920Z,3.33
2018-08-09T08:41:22.008Z,3.90
2018-08-09T08:43:54.007Z,3.50
2018-08-09T08:46:26.070Z,3.80
2018-08-09T08:48:58.178Z,4.33
2018-08-09T08:51:30.185Z,4.23
2018-08-09T08:54:02.268Z,3.80
2018-08-09T08:56:34.252Z,4.10
2018-08-09T08:59:06.297Z,4.00
2018-08-09T09:01:38.310Z,4.17
2018-08-09T09:04:10.374Z,4.30
2018-08-09T09:06:49.210Z,3.87
2018-08-09T09:09:21.222Z,4.00
2018-08-09T09:11:53.256Z,4.20
2018-08-09T09:14:25.319Z,3.93
2018-08-09T09:16:57.335Z,4.00
2018-08-09T09:19:29.483Z,4.03
2018-08-09T09:22:01.462Z,4.00
2018-08-09T09:24:33.683Z,4.40
2018-08-09T09:27:05.771Z,4.00
2018-08-09T09:29:37.707Z,4.33
2018-08-09T09:32:09.838Z,3.70
2018-08-09T09:34:41.899Z,3.60
2018-08-09T09:37:13.936Z,4.00
2018-08-09T09:39:45.950Z,3.83
2018-08-09T09:42:17.954Z,3.53
2018-08-09T09:44:49.943Z,4.13
2018-08-09T09:47:21.991Z,4.33
2018-08-09T09:49:53.993Z,4.40
2018-08-09T09:52:25.967Z,3.53
2018-08-09T09:54:58.193Z,4.40
2018-08-09T09:57:30.249Z,4.57
2018-08-09T10:00:02.345Z,4.30
2018-08-09T10:02:34.344Z,4.10
2018-08-09T10:05:06.355Z,3.80
2018-08-09T10:07:38.676Z,4.00
2018-08-09T10:10:11.552Z,4.00
2018-08-09T10:12:43.619Z,4.43
2018-08-09T10:15:15.620Z,4.27
2018-08-09T10:17:47.626Z,4.47
2018-08-09T10:20:19.749Z,3.97
2018-08-09T10:22:51.738Z,4.17
2018-08-09T10:25:23.782Z,4.50
2018-08-09T10:27:55.823Z,3.90
2018-08-09T10:30:27.918Z,4.17
2018-08-09T10:33:00.312Z,4.63
2018-08-09T10:35:32.438Z,4.40
2018-08-09T10:38:04.436Z,4.10
2018-08-09T10:40:36.466Z,4.37
2018-08-09T10:43:08.554Z,3.90
2018-08-09T10:45:40.547Z,4.53
2018-08-09T10:48:12.614Z,4.27
2018-08-09T10:50:44.668Z,4.30
2018-08-09T10:53:16.732Z,4.33
2018-08-09T10:55:48.752Z,4.40
2018-08-09T10:58:20.775Z,3.90
2018-08-09T11:00:52.844Z,4.00
2018-08-09T11:03:24.842Z,4.80
2018-08-09T11:05:56.856Z,4.00
2018-08-09T11:08:29.138Z,4.23
2018-08-09T11:11:06.758Z,4.60
2018-08-09T11:13:40.543Z,3.83
2018-08-09T11:16:13.526Z,4.50
2018-08-09T11:18:45.603Z,4.00
2018-08-09T11:21:17.642Z,4.30
2018-08-09T11:23:49.684Z,4.30
2018-08-09T11:26:21.695Z,4.10
2018-08-09T11:28:53.712Z,4.00
2018-08-09T11:31:25.923Z,3.80
2018-08-09T11:33:58.062Z,4.50
2018-08-09T11:36:30.156Z,4.27
2018-08-09T11:39:02.343Z,4.27
2018-08-09T11:48:42.498Z,3.77
2018-08-09T11:51:14.569Z,3.80
2018-08-09T11:53:46.632Z,4.07
2018-08-09T11:56:18.779Z,4.30
2018-08-09T11:58:50.794Z,4.13
2018-08-09T12:01:22.884Z,3.90
2018-08-09T12:03:54.944Z,4.30
2018-08-09T12:06:29.003Z,3.83
2018-08-09T12:09:05.163Z,4.00
2018-08-09T12:11:37.872Z,4.07
2018-08-09T12:14:09.910Z,4.20
2018-08-09T12:16:41.896Z,3.67
2018-08-09T12:19:13.991Z,4.20
2018-08-09T12:21:46.039Z,3.47
2018-08-09T12:24:18.146Z,4.07
2018-08-09T12:26:50.166Z,3.93
2018-08-09T12:29:22.236Z,4.10
2018-08-09T12:31:54.355Z,3.63
2018-08-09T12:34:26.395Z,3.93
2018-08-09T12:36:58.531Z,3.20
2018-08-09T12:39:30.614Z,3.60
2018-08-09T12:42:02.780Z,3.90
2018-08-09T12:44:34.886Z,3.80
2018-08-09T12:47:07.072Z,3.60
2018-08-09T12:49:39.161Z,3.90
2018-08-09T12:52:11.196Z,3.23
2018-08-09T12:54:43.253Z,3.70
2018-08-09T12:57:15.384Z,3.60
2018-08-09T12:59:47.525Z,3.37
2018-08-09T13:02:19.605Z,3.60
2018-08-09T13:04:51.643Z,4.20
2018-08-09T13:07:23.693Z,3.67
2018-08-09T13:09:55.714Z,4.20
2018-08-09T13:12:27.872Z,4.00
2018-08-09T13:14:59.954Z,3.67
2018-08-09T13:17:32.008Z,3.30
2018-08-09T13:20:04.814Z,3.47
2018-08-09T13:22:36.836Z,3.20
2018-08-09T13:25:08.945Z,3.30
2018-08-09T13:27:40.977Z,3.60
2018-08-09T13:30:13.437Z,4.07
2018-08-09T13:32:45.448Z,3.40
2018-08-09T13:35:17.472Z,4.17
2018-08-09T13:37:49.506Z,3.47
2018-08-09T13:40:21.579Z,3.67
2018-08-09T13:42:53.640Z,3.70
2018-08-09T13:45:25.695Z,3.83
2018-08-09T13:47:57.779Z,4.40
2018-08-09T13:50:29.803Z,3.83
2018-08-09T13:53:01.859Z,3.70
2018-08-09T13:55:33.915Z,3.37
2018-08-09T13:58:06.039Z,3.30
2018-08-09T14:00:38.107Z,3.80
2018-08-09T14:03:10.201Z,3.83
2018-08-09T14:05:42.230Z,3.70
2018-08-09T14:08:14.314Z,3.60
2018-08-09T14:10:46.338Z,3.87
2018-08-09T14:13:18.373Z,3.87
2018-08-09T14:15:50.411Z,3.50
2018-08-09T14:18:22.449Z,3.70
2018-08-09T14:20:54.471Z,3.60
2018-08-09T14:23:26.551Z,3.70
2018-08-09T14:25:58.576Z,3.40
2018-08-09T14:28:30.599Z,3.73
2018-08-09T14:31:02.700Z,4.20
2018-08-09T14:33:34.730Z,3.60
2018-08-09T14:36:13.631Z,3.90
2018-08-09T14:38:45.789Z,4.10
2018-08-09T14:41:17.795Z,3.57
2018-08-09T14:43:49.927Z,3.33
2018-08-09T14:46:22.026Z,3.30
2018-08-09T14:48:54.107Z,3.53
2018-08-09T14:51:26.146Z,3.70
2018-08-09T14:53:58.461Z,3.30
2018-08-09T14:56:30.512Z,3.47
2018-08-09T14:59:02.559Z,3.20
2018-08-09T15:01:34.641Z,3.17
2018-08-09T15:04:06.761Z,3.80
2018-08-09T15:06:38.887Z,2.90
2018-08-09T15:09:11.879Z,3.50
2018-08-09T15:11:43.947Z,3.33
2018-08-09T15:14:16.105Z,3.60
2018-08-09T15:16:48.130Z,3.23
2018-08-09T15:19:20.175Z,3.37
2018-08-09T15:21:52.239Z,3.53
2018-08-09T15:24:24.280Z,3.90
2018-08-09T15:26:56.274Z,3.20
2018-08-09T15:29:28.378Z,3.40
2018-08-09T15:32:00.412Z,3.70
2018-08-09T15:34:32.420Z,3.40
2018-08-09T15:37:04.808Z,2.93
2018-08-09T15:39:36.855Z,3.23
2018-08-09T15:42:08.911Z,3.10
2018-08-09T15:44:40.934Z,3.00
2018-08-09T15:47:13.142Z,2.90
2018-08-09T15:49:45.072Z,3.30
2018-08-09T15:52:17.062Z,3.47
2018-08-09T15:54:49.103Z,3.40
2018-08-09T15:57:21.135Z,2.90
2018-08-09T15:59:53.181Z,3.30
2018-08-09T16:02:25.298Z,3.40
2018-08-09T16:04:57.294Z,3.20
2018-08-09T16:07:29.354Z,3.33
2018-08-09T16:10:01.428Z,3.53
2018-08-09T16:12:33.455Z,3.20
2018-08-09T16:15:08.731Z,3.20
2018-08-09T16:17:41.088Z,3.40
2018-08-09T16:20:13.130Z,3.23
2018-08-09T16:22:45.827Z,3.10
2018-08-09T16:25:18.581Z,3.00
2018-08-09T16:27:50.622Z,3.30
2018-08-09T16:30:23.927Z,3.00
2018-08-09T16:32:55.963Z,3.10
2018-08-09T16:35:28.003Z,3.20
2018-08-09T16:38:00.043Z,3.00
2018-08-09T16:40:32.108Z,3.33
2018-08-09T16:43:04.143Z,3.20
2018-08-09T16:45:36.187Z,2.93
2018-08-09T16:48:08.186Z,3.50
2018-08-09T16:51:43.575Z,3.03
2018-08-09T16:54:15.648Z,3.20
2018-08-09T16:56:47.715Z,3.40
2018-08-09T16:59:19.773Z,3.60
2018-08-09T17:01:51.907Z,3.70
2018-08-09T17:04:23.963Z,3.50
2018-08-09T17:06:56.135Z,3.33
2018-08-09T17:09:28.246Z,3.70
2018-08-09T17:12:00.591Z,3.80
2018-08-09T17:14:32.719Z,3.93
2018-08-09T17:17:05.301Z,3.23
2018-08-09T17:19:37.867Z,3.20
2018-08-09T17:22:10.182Z,3.73
2018-08-09T17:24:42.259Z,3.60
2018-08-09T17:27:14.386Z,3.50
2018-08-09T17:29:46.654Z,3.83
2018-08-09T17:32:18.775Z,4.30
2018-08-09T17:34:50.899Z,4.97
2018-08-09T17:37:23.472Z,5.07
2018-08-09T17:39:55.792Z,4.90
2018-08-09T17:42:29.068Z,4.67
2018-08-09T17:45:01.192Z,4.40
2018-08-09T17:47:33.392Z,4.00
2018-08-09T17:50:06.088Z,4.23
2018-08-09T17:52:38.271Z,4.20
2018-08-09T17:55:12.189Z,4.90
2018-08-09T17:57:45.036Z,4.70
2018-08-09T18:00:26.975Z,4.20
2018-08-09T18:02:59.115Z,3.73
2018-08-09T18:05:31.238Z,4.50
2018-08-09T18:08:03.675Z,3.50
2018-08-09T18:10:36.095Z,4.27
2018-08-09T18:13:08.349Z,4.20
2018-08-09T18:15:40.462Z,3.77
2018-08-09T18:18:12.579Z,3.50
2018-08-09T18:20:44.804Z,4.00
2018-08-09T18:23:17.023Z,4.40
2018-08-09T18:25:49.292Z,3.80
2018-08-09T18:28:21.588Z,4.00
2018-08-09T18:30:53.648Z,4.60
2018-08-09T18:33:25.745Z,3.80
2018-08-09T18:35:57.834Z,3.50
2018-08-09T18:38:29.967Z,4.07
2018-08-09T18:41:02.162Z,4.33
2018-08-09T18:43:34.388Z,4.40
2018-08-09T18:46:06.850Z,4.00
2018-08-09T18:48:38.954Z,4.23
2018-08-09T18:51:11.099Z,4.30
2018-08-09T18:53:43.219Z,4.53
2018-08-09T18:56:15.485Z,4.10
2018-08-09T18:58:47.649Z,4.33
2018-08-09T19:01:19.700Z,3.90
2018-08-09T19:03:51.792Z,4.10
2018-08-09T19:06:24.051Z,4.17
2018-08-09T19:08:56.160Z,4.90
2018-08-09T19:11:28.353Z,3.90
2018-08-09T19:14:00.476Z,3.80
2018-08-09T19:16:32.692Z,3.60
2018-08-09T19:19:04.713Z,4.43
2018-08-09T19:21:36.966Z,3.77
2018-08-09T19:24:09.110Z,3.90
2018-08-09T19:26:41.300Z,3.47
2018-08-09T19:29:13.478Z,3.63
2018-08-09T19:31:45.780Z,3.00
2018-08-09T19:34:17.838Z,3.10
2018-08-09T19:36:49.954Z,3.37
2018-08-09T19:39:22.252Z,3.70
2018-08-09T19:41:54.431Z,3.80
2018-08-09T19:44:26.553Z,3.57
2018-08-09T19:46:58.660Z,3.47
2018-08-09T19:49:30.743Z,4.97
2018-08-09T19:52:02.959Z,4.30
2018-08-09T19:54:35.068Z,3.20
2018-08-09T19:57:07.546Z,3.50
2018-08-09T19:59:39.752Z,3.03
2018-08-09T20:02:11.869Z,3.20
2018-08-09T20:04:44.016Z,3.10
2018-08-09T20:07:16.210Z,2.73
2018-08-09T20:09:48.490Z,2.67
2018-08-09T20:12:20.600Z,2.60
2018-08-09T20:14:52.742Z,2.70
2018-08-09T20:17:24.987Z,2.47
2018-08-09T20:19:58.898Z,3.00
2018-08-09T20:22:31.026Z,3.13
2018-08-09T20:25:03.671Z,2.93
2018-08-09T20:27:35.911Z,3.37
2018-08-09T20:30:09.572Z,3.07
2018-08-09T20:32:42.235Z,2.70
2018-08-09T20:35:16.747Z,3.30
2018-08-09T20:37:49.490Z,3.00
2018-08-09T20:40:22.706Z,2.83
2018-08-09T20:42:54.851Z,2.73
2018-08-09T20:45:26.971Z,3.90
2018-08-09T20:47:59.386Z,2.30
2018-08-09T20:50:31.460Z,3.03
2018-08-09T20:53:03.532Z,2.83
2018-08-09T20:55:35.774Z,2.80
2018-08-09T20:58:07.903Z,2.90
2018-08-09T21:00:39.961Z,2.57
2018-08-09T21:03:12.071Z,2.80
2018-08-09T21:05:44.096Z,2.70
2018-08-09T21:08:16.180Z,3.00
2018-08-09T21:10:48.211Z,2.63
2018-08-09T21:13:21.331Z,2.80
2018-08-09T21:15:53.358Z,2.40
2018-08-09T21:18:25.410Z,2.40
2018-08-09T21:20:57.428Z,2.70
2018-08-09T21:23:29.434Z,3.20
2018-08-09T21:26:01.493Z,2.67
2018-08-09T21:28:33.567Z,2.93
2018-08-09T21:31:05.571Z,2.47
2018-08-09T21:33:37.700Z,2.73
2018-08-09T21:36:09.688Z,3.00
2018-08-09T21:38:41.727Z,3.20
2018-08-09T21:41:13.744Z,3.00
2018-08-09T21:43:45.774Z,2.70
2018-08-09T21:46:17.794Z,3.33
2018-08-09T21:48:49.794Z,3.10
2018-08-09T21:51:21.815Z,2.53
2018-08-09T21:53:53.854Z,2.53
2018-08-09T21:56:25.911Z,2.60
2018-08-09T21:58:57.922Z,3.43
2018-08-09T22:01:29.943Z,2.57
2018-08-09T22:04:01.969Z,2.53
2018-08-09T22:06:39.574Z,3.00
2018-08-09T22:09:17.173Z,3.23
2018-08-09T22:11:54.834Z,2.90
2018-08-09T22:14:32.488Z,3.27
2018-08-09T22:17:10.356Z,2.80
2018-08-09T22:19:47.996Z,3.50
2018-08-09T22:22:22.594Z,2.73
2018-08-09T22:24:54.611Z,2.73
2018-08-09T22:27:26.682Z,3.20
2018-08-09T22:29:58.690Z,3.27
2018-08-09T22:32:30.743Z,2.50
2018-08-09T22:35:03.608Z,3.00
2018-08-09T22:37:35.666Z,2.83
2018-08-09T22:40:07.843Z,2.77
2018-08-09T22:42:39.891Z,3.20
2018-08-09T22:45:11.924Z,2.80
2018-08-09T22:47:43.953Z,3.40
2018-08-09T22:50:15.978Z,2.60
2018-08-09T22:52:48.053Z,2.53
2018-08-09T22:55:20.078Z,2.60
2018-08-09T22:57:52.088Z,2.50
2018-08-09T23:00:24.135Z,3.17
2018-08-09T23:03:02.835Z,2.77
2018-08-09T23:05:35.002Z,2.67
2018-08-09T23:08:08.963Z,2.50
2018-08-09T23:10:41.778Z,2.53
2018-08-09T23:13:14.636Z,2.77
2018-08-09T23:15:46.672Z,2.30
2018-08-09T23:18:18.695Z,2.27
2018-08-09T23:20:50.707Z,2.80
2018-08-09T23:23:22.719Z,2.23
2018-08-09T23:25:54.715Z,2.30
2018-08-09T23:28:27.400Z,3.00
2018-08-09T23:30:59.388Z,2.13
2018-08-09T23:33:31.357Z,2.50
2018-08-09T23:36:03.390Z,2.70
2018-08-09T23:38:35.401Z,2.83
2018-08-09T23:41:07.390Z,2.63
2018-08-09T23:43:39.379Z,2.63
2018-08-09T23:46:11.431Z,2.60
2018-08-09T23:48:43.454Z,2.67
2018-08-09T23:51:15.408Z,2.40
2018-08-09T23:53:47.420Z,2.20
2018-08-09T23:56:19.424Z,2.30
2018-08-09T23:58:51.519Z,2.60
